createdAt,value
2022-08-04T00:02:24.896Z,3.22
2022-08-04T00:05:00.565Z,2.70
2022-08-04T00:07:45.408Z,2.63
2022-08-04T00:10:16.979Z,2.83
2022-08-04T00:12:47.728Z,2.80
2022-08-04T00:15:16.931Z,2.75
2022-08-04T00:17:57.887Z,2.90
2022-08-04T00:20:29.260Z,3.00
2022-08-04T00:22:57.372Z,2.90
2022-08-04T00:25:25.159Z,2.90
2022-08-04T00:27:52.281Z,2.88
2022-08-04T00:30:19.231Z,2.55
2022-08-04T00:32:46.862Z,2.63
2022-08-04T00:35:15.289Z,2.78
2022-08-04T00:37:47.412Z,3.03
2022-08-04T00:40:24.212Z,2.70
2022-08-04T00:43:28.117Z,2.72
2022-08-04T00:46:18.078Z,2.70
2022-08-04T00:49:06.684Z,2.90
2022-08-04T00:52:32.054Z,2.72
2022-08-04T00:54:53.902Z,2.92
2022-08-04T00:57:50.810Z,2.88
2022-08-04T01:00:17.767Z,3.13
2022-08-04T01:02:50.727Z,2.80
2022-08-04T01:05:48.870Z,2.72
2022-08-04T01:08:38.714Z,2.83
2022-08-04T01:11:57.093Z,2.72
2022-08-04T01:14:52.092Z,2.75
2022-08-04T01:17:37.562Z,2.83
2022-08-04T01:20:13.288Z,2.30
2022-08-04T01:23:20.719Z,2.83
2022-08-04T01:25:53.242Z,2.97
2022-08-04T01:28:23.073Z,2.88
2022-08-04T01:30:57.788Z,2.75
2022-08-04T01:33:29.423Z,2.80
2022-08-04T01:35:59.943Z,2.38
2022-08-04T01:38:39.563Z,2.80
2022-08-04T01:41:13.055Z,2.80
2022-08-04T01:43:45.574Z,2.92
2022-08-04T01:46:15.917Z,2.63
2022-08-04T01:48:45.706Z,2.60
2022-08-04T01:51:13.308Z,2.85
2022-08-04T01:53:43.961Z,3.00
2022-08-04T01:56:12.510Z,3.08
2022-08-04T01:58:40.797Z,2.80
2022-08-04T02:01:13.535Z,2.75
2022-08-04T02:04:20.460Z,2.92
2022-08-04T02:06:46.080Z,2.80
2022-08-04T02:09:23.476Z,2.70
2022-08-04T02:12:05.352Z,2.65
2022-08-04T02:15:00.955Z,3.03
2022-08-04T02:17:38.029Z,2.78
2022-08-04T02:20:09.437Z,3.00
2022-08-04T02:23:01.262Z,3.08
2022-08-04T02:25:29.845Z,3.03
2022-08-04T02:28:18.203Z,3.10
2022-08-04T02:31:08.699Z,2.83
2022-08-04T02:33:45.241Z,2.80
2022-08-04T02:36:23.846Z,2.70
2022-08-04T02:39:00.366Z,2.95
2022-08-04T02:41:28.534Z,2.83
2022-08-04T02:43:58.516Z,2.85
2022-08-04T02:46:25.824Z,3.10
2022-08-04T02:48:54.561Z,2.92
2022-08-04T02:51:28.793Z,2.78
2022-08-04T02:53:58.998Z,3.20
2022-08-04T02:56:30.064Z,3.22
2022-08-04T02:59:00.958Z,3.05
2022-08-04T03:01:27.988Z,2.65
2022-08-04T03:04:24.976Z,3.13
2022-08-04T03:07:16.793Z,3.10
2022-08-04T03:10:02.529Z,2.88
2022-08-04T03:12:50.949Z,2.92
2022-08-04T03:15:24.018Z,2.70
2022-08-04T03:18:05.666Z,2.63
2022-08-04T03:21:13.486Z,3.45
2022-08-04T03:23:46.470Z,3.15
2022-08-04T03:26:31.964Z,3.15
2022-08-04T03:29:35.179Z,2.97
2022-08-04T03:32:38.099Z,3.03
2022-08-04T03:35:29.197Z,3.05
2022-08-04T03:38:07.965Z,3.20
2022-08-04T03:40:54.115Z,3.10
2022-08-04T03:43:57.516Z,2.88
2022-08-04T03:46:45.279Z,2.88
2022-08-04T03:49:53.429Z,3.10
2022-08-04T03:52:57.491Z,3.47
2022-08-04T03:55:27.098Z,3.22
2022-08-04T03:58:20.555Z,2.70
2022-08-04T04:00:54.840Z,2.95
2022-08-04T04:03:29.577Z,2.72
2022-08-04T04:06:18.829Z,3.17
2022-08-04T04:09:20.692Z,3.10
2022-08-04T04:12:09.518Z,3.20
2022-08-04T04:14:59.099Z,3.40
2022-08-04T04:17:50.139Z,3.20
2022-08-04T04:20:38.352Z,3.15
2022-08-04T04:23:22.945Z,3.22
2022-08-04T04:26:26.303Z,3.00
2022-08-04T04:29:27.349Z,2.80
2022-08-04T04:32:10.444Z,3.72
2022-08-04T04:34:46.414Z,3.35
2022-08-04T04:37:25.660Z,3.45
2022-08-04T04:39:57.195Z,3.10
2022-08-04T04:42:23.956Z,3.47
2022-08-04T04:45:02.660Z,3.08
2022-08-04T04:48:07.989Z,3.33
2022-08-04T04:50:53.670Z,3.28
2022-08-04T04:53:44.614Z,3.42
2022-08-04T04:56:52.832Z,3.17
2022-08-04T04:59:25.025Z,3.35
2022-08-04T05:01:54.900Z,3.20
2022-08-04T05:04:40.021Z,3.50
2022-08-04T05:07:22.039Z,3.60
2022-08-04T05:10:21.805Z,3.58
2022-08-04T05:14:38.770Z,3.40
2022-08-04T05:16:00.157Z,3.65
2022-08-04T05:18:31.017Z,3.17
2022-08-04T05:21:30.458Z,3.03
2022-08-04T05:24:04.014Z,2.95
2022-08-04T05:26:35.453Z,3.22
2022-08-04T05:29:09.457Z,3.00
2022-08-04T05:31:51.092Z,3.30
2022-08-04T05:34:24.140Z,3.33
2022-08-04T05:36:57.270Z,3.10
2022-08-04T05:39:36.202Z,2.95
2022-08-04T05:42:07.407Z,3.30
2022-08-04T05:44:42.813Z,3.10
2022-08-04T05:47:12.966Z,3.13
2022-08-04T05:49:44.611Z,3.25
2022-08-04T05:52:15.391Z,3.10
2022-08-04T05:54:43.044Z,3.40
2022-08-04T05:57:18.434Z,3.40
2022-08-04T05:59:51.527Z,3.45
2022-08-04T06:02:20.432Z,3.15
2022-08-04T06:04:51.338Z,3.33
2022-08-04T06:07:21.688Z,3.10
2022-08-04T06:09:48.839Z,3.30
2022-08-04T06:12:40.916Z,2.83
2022-08-04T06:15:14.510Z,2.88
2022-08-04T06:19:56.853Z,2.88
2022-08-04T06:20:50.032Z,2.97
2022-08-04T06:23:25.522Z,3.38
2022-08-04T06:25:57.350Z,2.70
2022-08-04T06:28:28.102Z,2.80
2022-08-04T06:30:55.914Z,3.15
2022-08-04T06:33:54.340Z,3.05
2022-08-04T06:36:28.086Z,3.60
2022-08-04T06:38:58.771Z,3.20
2022-08-04T06:41:31.963Z,3.08
2022-08-04T06:44:02.354Z,2.90
2022-08-04T06:46:30.467Z,3.40
2022-08-04T06:48:58.224Z,3.05
2022-08-04T06:51:37.030Z,3.20
2022-08-04T06:54:08.271Z,3.05
2022-08-04T06:56:38.990Z,2.88
2022-08-04T06:59:06.361Z,2.88
2022-08-04T07:01:36.528Z,3.05
2022-08-04T07:04:06.734Z,3.20
2022-08-04T07:06:35.562Z,2.95
2022-08-04T07:09:03.754Z,2.75
2022-08-04T07:11:44.168Z,2.53
2022-08-04T07:14:20.295Z,2.75
2022-08-04T07:16:49.157Z,2.83
2022-08-04T07:19:19.054Z,2.75
2022-08-04T07:22:17.743Z,3.45
2022-08-04T07:24:41.769Z,3.00
2022-08-04T07:27:12.573Z,3.35
2022-08-04T07:29:40.855Z,3.33
2022-08-04T07:32:08.161Z,2.85
2022-08-04T07:34:37.954Z,3.15
2022-08-04T07:37:05.718Z,3.05
2022-08-04T07:39:47.957Z,2.88
2022-08-04T07:42:19.742Z,3.00
2022-08-04T07:44:47.011Z,2.70
2022-08-04T07:47:14.609Z,2.75
2022-08-04T07:49:57.363Z,2.97
2022-08-04T07:52:26.699Z,3.10
2022-08-04T07:54:54.627Z,2.90
2022-08-04T07:57:40.205Z,2.72
2022-08-04T08:00:10.629Z,2.85
2022-08-04T08:02:39.190Z,2.80
2022-08-04T08:05:07.998Z,2.50
2022-08-04T08:07:34.932Z,2.78
2022-08-04T08:10:01.871Z,2.60
2022-08-04T08:12:37.144Z,2.95
2022-08-04T08:15:16.364Z,2.50
2022-08-04T08:17:59.718Z,2.40
2022-08-04T08:22:57.397Z,2.10
2022-08-04T08:25:24.735Z,2.40
2022-08-04T08:27:56.222Z,2.20
2022-08-04T08:30:24.752Z,2.45
2022-08-04T08:33:06.251Z,2.97
2022-08-04T08:35:47.325Z,2.35
2022-08-04T08:38:33.542Z,2.40
2022-08-04T08:41:32.510Z,2.45
2022-08-04T08:44:19.259Z,2.50
2022-08-04T08:47:19.030Z,2.80
2022-08-04T08:50:10.200Z,2.80
2022-08-04T08:53:10.551Z,2.30
2022-08-04T08:56:13.621Z,2.30
2022-08-04T08:59:16.257Z,2.90
2022-08-04T09:01:56.863Z,2.40
2022-08-04T09:04:51.252Z,2.50
2022-08-04T09:07:53.296Z,2.38
2022-08-04T09:10:34.073Z,2.60
2022-08-04T09:13:08.479Z,2.67
2022-08-04T09:15:35.273Z,2.50
2022-08-04T09:18:21.950Z,2.58
2022-08-04T09:21:03.141Z,2.55
2022-08-04T09:24:00.231Z,2.33
2022-08-04T09:26:48.610Z,2.33
2022-08-04T09:29:27.795Z,2.33
2022-08-04T09:32:33.010Z,2.30
2022-08-04T09:35:19.506Z,2.22
2022-08-04T09:38:11.863Z,2.30
2022-08-04T09:41:19.800Z,2.50
2022-08-04T09:44:49.207Z,2.58
2022-08-04T09:47:20.599Z,2.70
2022-08-04T09:49:58.354Z,2.83
2022-08-04T09:53:00.427Z,3.00
2022-08-04T09:55:54.804Z,2.75
2022-08-04T09:58:49.531Z,2.65
2022-08-04T10:01:24.266Z,2.60
2022-08-04T10:03:55.581Z,2.70
2022-08-04T10:06:45.914Z,2.70
2022-08-04T10:09:37.484Z,2.80
2022-08-04T10:12:28.905Z,2.83
2022-08-04T10:15:19.602Z,2.67
2022-08-04T10:18:08.428Z,2.50
2022-08-04T10:21:00.080Z,2.35
2022-08-04T10:24:12.220Z,2.72
2022-08-04T10:27:00.119Z,2.60
2022-08-04T10:30:03.917Z,2.22
2022-08-04T10:32:45.401Z,2.50
2022-08-04T10:35:20.127Z,2.25
2022-08-04T10:38:02.496Z,2.45
2022-08-04T10:40:45.385Z,2.33
2022-08-04T10:43:54.186Z,2.60
2022-08-04T10:46:27.017Z,2.60
2022-08-04T10:49:04.146Z,2.45
2022-08-04T10:51:58.005Z,2.20
2022-08-04T10:54:54.103Z,2.80
2022-08-04T10:57:36.158Z,2.50
2022-08-04T11:00:16.548Z,2.30
2022-08-04T11:02:55.266Z,2.28
2022-08-04T11:05:43.957Z,2.20
2022-08-04T11:08:21.689Z,2.25
2022-08-04T11:10:57.199Z,2.08
2022-08-04T11:13:30.010Z,2.05
2022-08-04T11:16:02.592Z,2.15
2022-08-04T11:18:57.105Z,2.10
2022-08-04T11:21:32.497Z,2.30
2022-08-04T11:24:19.428Z,2.45
2022-08-04T11:27:12.961Z,2.20
2022-08-04T11:29:54.847Z,2.13
2022-08-04T11:32:45.187Z,2.38
2022-08-04T11:35:43.225Z,2.22
2022-08-04T11:38:33.349Z,2.25
2022-08-04T11:41:07.968Z,2.30
2022-08-04T11:44:02.734Z,2.30
2022-08-04T11:46:39.436Z,2.83
2022-08-04T11:49:08.925Z,2.20
2022-08-04T11:51:37.155Z,2.35
2022-08-04T11:54:04.743Z,2.38
2022-08-04T11:56:36.908Z,2.20
2022-08-04T11:59:08.326Z,2.28
2022-08-04T12:01:47.745Z,2.50
2022-08-04T12:04:22.282Z,2.30
2022-08-04T12:07:40.998Z,2.10
2022-08-04T12:10:37.837Z,2.20
2022-08-04T12:13:21.355Z,2.20
2022-08-04T12:16:24.509Z,2.13
2022-08-04T12:19:13.030Z,2.20
2022-08-04T12:21:53.300Z,2.25
2022-08-04T12:24:31.113Z,2.33
2022-08-04T12:27:05.008Z,1.92
2022-08-04T12:29:34.611Z,2.00
2022-08-04T12:32:11.419Z,2.15
2022-08-04T12:34:47.253Z,2.20
2022-08-04T12:37:34.685Z,2.20
2022-08-04T12:40:28.245Z,2.15
2022-08-04T12:43:02.085Z,1.85
2022-08-04T12:45:30.639Z,2.20
2022-08-04T12:48:00.761Z,2.20
2022-08-04T12:50:28.696Z,2.10
2022-08-04T12:53:02.591Z,2.30
2022-08-04T12:55:33.777Z,2.35
2022-08-04T12:58:02.879Z,2.30
2022-08-04T13:00:40.589Z,2.30
2022-08-04T13:03:16.889Z,2.30
2022-08-04T13:05:45.747Z,2.20
2022-08-04T13:08:13.899Z,2.20
2022-08-04T13:10:44.878Z,2.50
2022-08-04T13:13:21.175Z,2.20
2022-08-04T13:16:02.489Z,2.17
2022-08-04T13:18:33.387Z,2.47
2022-08-04T13:21:21.110Z,2.17
2022-08-04T13:24:10.024Z,2.17
2022-08-04T13:26:54.764Z,2.05
2022-08-04T13:29:59.371Z,2.22
2022-08-04T13:32:18.380Z,2.40
2022-08-04T13:37:22.261Z,2.05
2022-08-04T13:39:55.932Z,2.17
2022-08-04T13:42:26.035Z,2.17
2022-08-04T13:45:00.989Z,2.38
2022-08-04T13:47:34.241Z,2.03
2022-08-04T13:50:20.867Z,2.22
2022-08-04T13:52:51.406Z,2.35
2022-08-04T13:55:38.313Z,2.33
2022-08-04T13:58:14.427Z,1.98
2022-08-04T14:00:47.963Z,2.20
2022-08-04T14:03:32.389Z,2.25
2022-08-04T14:06:18.504Z,2.30
2022-08-04T14:08:56.504Z,2.00
2022-08-04T14:12:06.720Z,2.35
2022-08-04T14:14:31.635Z,1.90
2022-08-04T14:17:19.971Z,2.10
2022-08-04T14:19:47.909Z,2.10
2022-08-04T14:22:26.793Z,2.05
2022-08-04T14:25:30.311Z,2.15
2022-08-04T14:28:02.905Z,2.35
2022-08-04T14:30:36.232Z,1.98
2022-08-04T14:34:02.538Z,2.10
2022-08-04T14:36:04.429Z,2.13
2022-08-04T14:38:58.548Z,2.13
2022-08-04T14:41:31.668Z,2.10
2022-08-04T14:44:02.252Z,2.40
2022-08-04T14:46:36.508Z,2.20
2022-08-04T14:49:12.432Z,1.95
2022-08-04T14:51:51.449Z,1.88
2022-08-04T14:54:27.398Z,2.28
2022-08-04T14:57:01.349Z,1.95
2022-08-04T15:00:01.712Z,2.00
2022-08-04T15:02:30.764Z,2.15
2022-08-04T15:04:58.844Z,2.00
2022-08-04T15:07:26.731Z,2.00
2022-08-04T15:09:54.346Z,2.30
2022-08-04T15:12:22.365Z,2.10
2022-08-04T15:14:49.599Z,2.85
2022-08-04T15:17:30.255Z,2.28
2022-08-04T15:19:58.453Z,2.35
2022-08-04T15:22:25.548Z,2.33
2022-08-04T15:24:54.796Z,2.25
2022-08-04T15:27:26.746Z,2.10
2022-08-04T15:30:04.065Z,2.10
2022-08-04T15:32:33.824Z,2.55
2022-08-04T15:35:08.962Z,2.10
2022-08-04T15:37:57.658Z,2.22
2022-08-04T15:40:39.716Z,1.98
2022-08-04T15:43:16.002Z,2.40
2022-08-04T15:46:41.050Z,2.40
2022-08-04T15:48:38.742Z,2.17
2022-08-04T15:51:14.367Z,2.20
2022-08-04T15:54:02.794Z,2.25
2022-08-04T15:56:29.755Z,2.20
2022-08-04T15:58:57.530Z,2.30
2022-08-04T16:01:25.429Z,2.72
2022-08-04T16:03:58.277Z,2.53
2022-08-04T16:06:29.382Z,2.40
2022-08-04T16:09:01.964Z,2.45
2022-08-04T16:11:33.363Z,2.38
2022-08-04T16:14:00.347Z,2.65
2022-08-04T16:16:37.437Z,2.40
2022-08-04T16:19:06.582Z,2.70
2022-08-04T16:21:46.809Z,2.65
2022-08-04T16:24:16.366Z,2.60
2022-08-04T16:26:54.557Z,2.03
2022-08-04T16:29:23.153Z,2.40
2022-08-04T16:32:05.560Z,2.35
2022-08-04T16:34:53.807Z,2.30
2022-08-04T16:37:20.572Z,2.70
2022-08-04T16:39:51.294Z,2.55
2022-08-04T16:42:30.700Z,2.60
2022-08-04T16:45:11.502Z,2.53
2022-08-04T16:47:47.428Z,2.53
2022-08-04T16:50:24.739Z,2.40
2022-08-04T16:52:55.231Z,2.78
2022-08-04T16:55:27.654Z,2.58
2022-08-04T16:58:01.422Z,2.30
2022-08-04T17:00:36.263Z,2.88
2022-08-04T17:03:07.853Z,2.30
2022-08-04T17:05:40.295Z,2.33
2022-08-04T17:10:55.967Z,2.28
2022-08-04T17:14:02.118Z,2.20
2022-08-04T17:16:21.172Z,2.33
2022-08-04T17:18:53.570Z,2.60
2022-08-04T17:21:27.745Z,2.63
2022-08-04T17:24:15.276Z,2.72
2022-08-04T17:26:53.835Z,2.30
2022-08-04T17:29:21.753Z,2.63
2022-08-04T17:31:48.742Z,2.40
2022-08-04T17:34:21.362Z,2.42
2022-08-04T17:36:48.686Z,2.40
2022-08-04T17:39:23.259Z,2.50
2022-08-04T17:41:56.645Z,2.45
2022-08-04T17:44:36.849Z,2.50
2022-08-04T17:47:19.566Z,2.45
2022-08-04T17:49:53.227Z,2.53
2022-08-04T17:52:41.499Z,2.50
2022-08-04T17:55:16.247Z,2.53
2022-08-04T17:57:52.243Z,2.40
2022-08-04T18:00:22.403Z,2.78
2022-08-04T18:02:54.587Z,2.58
2022-08-04T18:08:37.880Z,2.53
2022-08-04T18:11:04.946Z,2.70
2022-08-04T18:13:42.734Z,2.70
2022-08-04T18:16:21.912Z,2.50
2022-08-04T18:19:25.430Z,2.45
2022-08-04T18:21:59.410Z,2.47
2022-08-04T18:24:35.095Z,2.90
2022-08-04T18:27:06.291Z,2.50
2022-08-04T18:29:34.457Z,3.78
2022-08-04T18:32:07.115Z,2.90
2022-08-04T18:34:54.629Z,2.90
2022-08-04T18:38:11.452Z,2.80
2022-08-04T18:43:00.484Z,2.92
2022-08-04T18:45:33.938Z,2.80
2022-08-04T18:48:01.893Z,2.90
2022-08-04T18:51:01.063Z,2.70
2022-08-04T18:53:17.892Z,2.60
2022-08-04T18:55:56.981Z,2.97
2022-08-04T19:01:14.029Z,2.78
2022-08-04T19:03:44.084Z,2.97
2022-08-04T19:06:26.015Z,2.85
2022-08-04T19:08:54.594Z,3.42
2022-08-04T19:11:38.248Z,2.92
2022-08-04T19:14:17.836Z,3.00
2022-08-04T19:16:49.613Z,2.85
2022-08-04T19:19:18.051Z,3.30
2022-08-04T19:22:01.379Z,2.70
2022-08-04T19:24:41.024Z,2.60
2022-08-04T19:27:09.918Z,2.75
2022-08-04T19:29:43.095Z,2.80
2022-08-04T19:32:15.991Z,3.03
2022-08-04T19:34:47.444Z,2.80
2022-08-04T19:37:56.805Z,2.42
2022-08-04T19:40:32.590Z,3.20
2022-08-04T19:43:14.408Z,3.03
2022-08-04T19:45:45.043Z,2.85
2022-08-04T19:48:18.663Z,2.80
2022-08-04T19:50:47.177Z,2.33
2022-08-04T19:53:20.237Z,2.13
2022-08-04T19:56:08.909Z,2.55
2022-08-04T19:58:35.745Z,2.60
2022-08-04T20:01:02.580Z,2.63
2022-08-04T20:04:10.595Z,2.60
2022-08-04T20:06:16.166Z,2.38
2022-08-04T20:08:48.264Z,2.60
2022-08-04T20:11:16.417Z,2.63
2022-08-04T20:13:45.176Z,2.28
2022-08-04T20:16:29.664Z,2.30
2022-08-04T20:19:03.752Z,2.38
2022-08-04T20:21:36.520Z,2.25
2022-08-04T20:24:40.373Z,2.40
2022-08-04T20:27:15.433Z,2.05
2022-08-04T20:29:55.651Z,2.10
2022-08-04T20:34:55.230Z,2.10
2022-08-04T20:37:23.997Z,2.08
2022-08-04T20:39:59.428Z,2.00
2022-08-04T20:42:33.624Z,2.08
2022-08-04T20:47:53.232Z,2.28
2022-08-04T20:50:29.547Z,2.08
2022-08-04T20:52:58.600Z,3.90
2022-08-04T20:55:26.141Z,2.50
2022-08-04T20:58:02.566Z,2.40
2022-08-04T21:00:30.989Z,2.55
2022-08-04T21:02:59.342Z,2.55
2022-08-04T21:05:26.597Z,2.42
2022-08-04T21:07:56.707Z,2.35
2022-08-04T21:10:27.887Z,2.28
2022-08-04T21:12:55.179Z,2.00
2022-08-04T21:15:25.613Z,2.53
2022-08-04T21:17:58.387Z,2.13
2022-08-04T21:20:31.457Z,2.33
2022-08-04T21:22:59.670Z,2.30
2022-08-04T21:25:28.857Z,2.20
2022-08-04T21:27:58.824Z,2.35
2022-08-04T21:30:31.443Z,2.20
2022-08-04T21:33:04.420Z,2.42
2022-08-04T21:35:38.289Z,2.00
2022-08-04T21:38:17.138Z,2.35
2022-08-04T21:41:01.561Z,2.20
2022-08-04T21:43:42.295Z,2.08
2022-08-04T21:46:10.402Z,2.50
2022-08-04T21:48:39.216Z,2.40
2022-08-04T21:51:57.753Z,2.30
2022-08-04T21:54:10.119Z,2.47
2022-08-04T21:56:51.037Z,2.90
2022-08-04T21:59:23.520Z,2.22
2022-08-04T22:01:59.985Z,2.55
2022-08-04T22:04:28.047Z,2.47
2022-08-04T22:06:54.875Z,2.70
2022-08-04T22:09:22.372Z,2.30
2022-08-04T22:11:51.719Z,2.33
2022-08-04T22:14:29.224Z,2.40
2022-08-04T22:17:02.242Z,2.50
2022-08-04T22:19:39.804Z,2.50
2022-08-04T22:22:25.016Z,2.60
2022-08-04T22:24:54.802Z,2.60
2022-08-04T22:27:40.318Z,2.58
2022-08-04T22:30:17.416Z,2.50
2022-08-04T22:32:48.543Z,2.78
2022-08-04T22:35:36.396Z,2.63
2022-08-04T22:38:24.308Z,2.58
2022-08-04T22:41:02.169Z,2.60
2022-08-04T22:43:32.480Z,2.80
2022-08-04T22:46:06.424Z,2.38
2022-08-04T22:48:38.334Z,2.78
2022-08-04T22:51:07.287Z,2.67
2022-08-04T22:53:35.527Z,2.53
2022-08-04T22:56:09.802Z,2.63
2022-08-04T22:58:51.288Z,2.83
2022-08-04T23:01:19.246Z,2.30
2022-08-04T23:03:55.403Z,2.53
2022-08-04T23:06:25.423Z,2.75
2022-08-04T23:08:53.150Z,2.63
2022-08-04T23:11:20.504Z,2.28
2022-08-04T23:13:49.069Z,2.40
2022-08-04T23:16:17.036Z,2.60
2022-08-04T23:18:49.010Z,2.80
2022-08-04T23:21:17.246Z,2.50
2022-08-04T23:24:00.799Z,2.38
2022-08-04T23:26:29.943Z,2.17
2022-08-04T23:28:56.873Z,2.85
2022-08-04T23:31:24.684Z,2.30
2022-08-04T23:33:52.405Z,2.42
2022-08-04T23:36:29.598Z,2.30
2022-08-04T23:39:04.066Z,2.47
2022-08-04T23:41:51.404Z,2.42
2022-08-04T23:44:25.380Z,2.80
2022-08-04T23:47:04.492Z,2.10
2022-08-04T23:49:43.406Z,2.15
2022-08-04T23:52:27.673Z,2.55
2022-08-04T23:55:00.265Z,2.40
2022-08-04T23:58:05.332Z,2.45
